< < Back
Terminal Aerodrome Forecast


Current Version              Previous Versions:   1  2  3  4  5  6  7  8  9  

Terminal Aerodrome Forecast

161
FTUS44 KMRX 041728
TAFTYS
TAF
KTYS 041728Z 0418/0518 24006KT P6SM SCT040 SCT150
     FM050100 00000KT P6SM SCT100 BKN250
     FM051500 25006KT P6SM SCT050 BKN150=

Latest METAR

943
SAUS80 KWBC 042200 RRB
MTRTYS
METAR KTYS 042153Z 25009KT 10SM FEW050 BKN250 34/18 A2999 RMK AO2 SLP141
T03390183


USA.gov is the U.S. government's official web portal to all federal, state and local government web resources and services.